createdAt,value
2023-04-09T00:01:09.130Z,100.00
2023-04-09T00:04:11.782Z,100.00
2023-04-09T00:07:14.168Z,100.00
2023-04-09T00:10:16.879Z,100.00
2023-04-09T00:13:25.461Z,100.00
2023-04-09T00:16:38.739Z,100.00
2023-04-09T00:19:41.072Z,100.00
2023-04-09T00:22:43.664Z,100.00
2023-04-09T00:25:46.190Z,100.00
2023-04-09T00:28:48.844Z,100.00
2023-04-09T00:31:51.372Z,100.00
2023-04-09T00:34:54.056Z,100.00
2023-04-09T00:37:56.437Z,100.00
2023-04-09T00:40:59.073Z,100.00
2023-04-09T00:44:01.467Z,100.00
2023-04-09T00:47:05.164Z,100.00
2023-04-09T00:50:07.923Z,100.00
2023-04-09T00:53:11.149Z,100.00
2023-04-09T00:56:13.993Z,100.00
2023-04-09T00:59:16.991Z,100.00
2023-04-09T01:02:19.338Z,100.00
2023-04-09T01:05:22.667Z,100.00
2023-04-09T01:08:37.432Z,100.00
2023-04-09T01:12:02.867Z,100.00
2023-04-09T01:15:15.040Z,100.00
2023-04-09T01:18:20.668Z,100.00
2023-04-09T01:21:27.713Z,100.00
2023-04-09T01:24:36.196Z,100.00
2023-04-09T01:28:23.008Z,100.00
2023-04-09T01:31:31.422Z,100.00
2023-04-09T01:34:34.234Z,100.00
2023-04-09T01:37:37.733Z,100.00
2023-04-09T01:40:41.142Z,100.00
2023-04-09T01:43:44.462Z,100.00
2023-04-09T01:46:50.593Z,100.00
2023-04-09T01:49:54.800Z,100.00
2023-04-09T01:52:57.396Z,100.00
2023-04-09T01:56:00.588Z,100.00
2023-04-09T01:59:02.927Z,100.00
2023-04-09T02:02:13.278Z,100.00
2023-04-09T02:05:18.780Z,100.00
2023-04-09T02:08:22.053Z,100.00
2023-04-09T02:11:26.392Z,100.00
2023-04-09T02:14:29.540Z,100.00
2023-04-09T02:17:32.050Z,100.00
2023-04-09T02:20:34.750Z,100.00
2023-04-09T02:23:37.232Z,100.00
2023-04-09T02:26:40.830Z,100.00
2023-04-09T02:29:43.757Z,100.00
2023-04-09T02:32:48.052Z,100.00
2023-04-09T02:35:51.081Z,100.00
2023-04-09T02:38:55.383Z,100.00
2023-04-09T02:41:58.192Z,100.00
2023-04-09T02:45:02.966Z,100.00
2023-04-09T02:48:07.765Z,100.00
2023-04-09T02:51:11.515Z,100.00
2023-04-09T02:54:14.230Z,100.00
2023-04-09T02:57:16.950Z,100.00
2023-04-09T03:00:20.055Z,100.00
2023-04-09T03:03:23.090Z,100.00
2023-04-09T03:06:26.794Z,100.00
2023-04-09T03:09:31.263Z,100.00
2023-04-09T03:12:33.609Z,100.00
2023-04-09T03:15:36.475Z,100.00
2023-04-09T03:18:38.864Z,100.00
2023-04-09T03:21:41.682Z,100.00
2023-04-09T03:24:45.984Z,100.00
2023-04-09T03:27:48.834Z,100.00
2023-04-09T03:30:59.061Z,100.00
2023-04-09T03:34:02.348Z,100.00
2023-04-09T03:37:07.343Z,100.00
2023-04-09T03:40:10.713Z,100.00
2023-04-09T03:43:13.250Z,100.00
2023-04-09T03:46:23.497Z,100.00
2023-04-09T03:49:26.607Z,100.00
2023-04-09T03:52:32.548Z,100.00
2023-04-09T03:55:41.872Z,100.00
2023-04-09T03:58:54.811Z,100.00
2023-04-09T04:02:02.792Z,100.00
2023-04-09T04:05:09.262Z,100.00
2023-04-09T04:08:19.634Z,100.00
2023-04-09T04:11:23.176Z,100.00
2023-04-09T04:14:28.840Z,100.00
2023-04-09T04:17:41.007Z,100.00
2023-04-09T04:20:51.454Z,100.00
2023-04-09T04:23:54.188Z,100.00
2023-04-09T04:27:01.138Z,100.00
2023-04-09T04:30:10.780Z,100.00
2023-04-09T04:33:33.064Z,100.00
2023-04-09T04:36:37.413Z,100.00
2023-04-09T04:39:40.683Z,100.00
2023-04-09T04:42:47.328Z,100.00
2023-04-09T04:45:53.476Z,100.00
2023-04-09T04:48:59.805Z,100.00
2023-04-09T04:52:03.392Z,100.00
2023-04-09T04:55:07.452Z,100.00
2023-04-09T04:58:10.583Z,100.00
2023-04-09T05:01:20.209Z,100.00
2023-04-09T05:04:23.840Z,100.00
2023-04-09T05:07:26.743Z,100.00
2023-04-09T05:10:31.800Z,100.00
2023-04-09T05:13:35.950Z,100.00
2023-04-09T05:16:42.537Z,100.00
2023-04-09T05:19:53.175Z,100.00
2023-04-09T05:23:01.510Z,100.00
2023-04-09T05:26:08.874Z,100.00
2023-04-09T05:29:43.582Z,100.00
2023-04-09T05:32:46.446Z,100.00
2023-04-09T05:35:49.795Z,100.00
2023-04-09T05:38:52.966Z,100.00
2023-04-09T05:41:56.593Z,100.00
2023-04-09T05:45:08.347Z,100.00
2023-04-09T05:48:10.831Z,100.00
2023-04-09T05:51:15.986Z,100.00
2023-04-09T05:54:18.758Z,100.00
2023-04-09T05:57:21.828Z,100.00
2023-04-09T06:00:32.121Z,100.00
2023-04-09T06:03:35.001Z,100.00
2023-04-09T06:06:40.936Z,100.00
2023-04-09T06:09:47.138Z,100.00
2023-04-09T06:12:49.518Z,100.00
2023-04-09T06:15:52.529Z,100.00
2023-04-09T06:18:57.089Z,100.00
2023-04-09T06:21:59.765Z,100.00
2023-04-09T06:25:02.295Z,100.00
2023-04-09T06:28:05.430Z,100.00
2023-04-09T06:31:07.888Z,100.00
2023-04-09T06:34:11.359Z,100.00
2023-04-09T06:37:13.717Z,100.00
2023-04-09T06:40:16.686Z,100.00
2023-04-09T06:43:19.220Z,100.00
2023-04-09T06:46:26.872Z,100.00
2023-04-09T06:49:29.365Z,100.00
2023-04-09T06:52:32.163Z,100.00
2023-04-09T06:55:34.630Z,100.00
2023-04-09T06:58:37.401Z,100.00
2023-04-09T07:01:41.087Z,100.00
2023-04-09T07:04:44.059Z,99.23
2023-04-09T07:07:47.611Z,99.88
2023-04-09T07:10:50.379Z,98.91
2023-04-09T07:13:53.467Z,94.69
2023-04-09T07:16:56.465Z,93.19
2023-04-09T07:19:58.887Z,93.12
2023-04-09T07:23:01.791Z,93.68
2023-04-09T07:26:05.060Z,91.23
2023-04-09T07:29:10.137Z,88.75
2023-04-09T07:32:12.690Z,90.40
2023-04-09T07:35:15.705Z,91.94
2023-04-09T07:38:18.084Z,90.98
2023-04-09T07:41:21.154Z,86.61
2023-04-09T07:44:23.734Z,84.13
2023-04-09T07:47:27.328Z,82.19
2023-04-09T07:50:31.186Z,78.24
2023-04-09T07:53:33.984Z,75.14
2023-04-09T07:56:36.476Z,77.26
2023-04-09T07:59:39.258Z,79.79
2023-04-09T08:02:42.271Z,77.18
2023-04-09T08:05:45.775Z,74.42
2023-04-09T08:08:48.237Z,77.42
2023-04-09T08:11:50.985Z,76.38
2023-04-09T08:14:53.288Z,78.73
2023-04-09T08:17:56.193Z,74.45
2023-04-09T08:20:58.593Z,75.16
2023-04-09T08:24:04.664Z,79.06
2023-04-09T08:27:07.104Z,74.54
2023-04-09T08:30:10.456Z,75.10
2023-04-09T08:33:13.587Z,77.00
2023-04-09T08:36:16.323Z,70.68
2023-04-09T08:39:21.066Z,72.95
2023-04-09T08:42:25.579Z,71.15
2023-04-09T08:45:28.121Z,73.07
2023-04-09T08:48:31.006Z,72.24
2023-04-09T08:51:33.522Z,71.83
2023-04-09T08:54:36.936Z,69.35
2023-04-09T08:57:40.003Z,69.01
2023-04-09T09:00:42.932Z,69.53
2023-04-09T09:03:56.984Z,70.26
2023-04-09T09:07:07.149Z,72.70
2023-04-09T09:10:10.092Z,70.80
2023-04-09T09:13:26.871Z,70.36
2023-04-09T09:16:29.694Z,68.83
2023-04-09T09:19:33.825Z,73.71
2023-04-09T09:22:54.993Z,74.08
2023-04-09T09:25:58.285Z,72.23
2023-04-09T09:29:04.330Z,73.91
2023-04-09T09:32:13.828Z,73.57
2023-04-09T09:35:16.326Z,69.92
2023-04-09T09:38:19.118Z,74.70
2023-04-09T09:41:21.668Z,72.06
2023-04-09T09:44:32.340Z,74.75
2023-04-09T09:47:36.783Z,72.50
2023-04-09T09:50:43.685Z,77.25
2023-04-09T09:53:48.391Z,73.41
2023-04-09T09:56:52.984Z,76.95
2023-04-09T10:00:07.862Z,75.90
2023-04-09T10:03:23.616Z,74.54
2023-04-09T10:06:27.765Z,78.84
2023-04-09T10:09:32.692Z,78.65
2023-04-09T10:12:35.212Z,78.51
2023-04-09T10:15:38.629Z,79.56
2023-04-09T10:18:42.942Z,77.08
2023-04-09T10:21:56.851Z,74.68
2023-04-09T10:25:00.181Z,79.20
2023-04-09T10:28:03.699Z,77.12
2023-04-09T10:31:07.829Z,76.16
2023-04-09T10:34:11.004Z,74.85
2023-04-09T10:37:22.222Z,72.39
2023-04-09T10:40:25.262Z,72.64
2023-04-09T10:43:30.602Z,70.59
2023-04-09T10:46:37.259Z,71.80
2023-04-09T10:49:41.644Z,67.89
2023-04-09T10:52:44.693Z,68.42
2023-04-09T10:55:51.550Z,67.96
2023-04-09T10:58:54.392Z,68.36
2023-04-09T11:01:56.903Z,69.29
2023-04-09T11:05:23.596Z,66.85
2023-04-09T11:08:30.203Z,69.01
2023-04-09T11:11:34.795Z,68.82
2023-04-09T11:14:37.131Z,68.61
2023-04-09T11:17:39.958Z,67.57
2023-04-09T11:20:42.357Z,67.31
2023-04-09T11:23:52.304Z,62.51
2023-04-09T11:26:55.273Z,64.78
2023-04-09T11:29:58.036Z,66.09
2023-04-09T11:33:00.869Z,64.17
2023-04-09T11:36:06.481Z,64.60
2023-04-09T11:39:09.034Z,63.92
2023-04-09T11:42:15.609Z,67.62
2023-04-09T11:45:18.976Z,66.16
2023-04-09T11:48:23.621Z,61.39
2023-04-09T11:51:28.409Z,59.91
2023-04-09T11:54:34.699Z,57.21
2023-04-09T11:57:43.218Z,55.68
2023-04-09T12:00:46.377Z,55.78
2023-04-09T12:03:55.702Z,54.97
2023-04-09T12:07:01.379Z,56.90
2023-04-09T12:10:10.337Z,56.56
2023-04-09T12:13:13.947Z,53.69
2023-04-09T12:16:20.794Z,55.48
2023-04-09T12:19:26.027Z,57.72
2023-04-09T12:22:28.359Z,58.13
2023-04-09T12:25:32.462Z,54.05
2023-04-09T12:28:34.906Z,56.20
2023-04-09T12:31:37.858Z,58.48
2023-04-09T12:34:41.252Z,59.73
2023-04-09T12:37:44.520Z,60.95
2023-04-09T12:40:47.132Z,62.02
2023-04-09T12:43:49.977Z,64.93
2023-04-09T12:46:52.449Z,61.68
2023-04-09T12:49:55.129Z,59.71
2023-04-09T12:52:57.406Z,61.77
2023-04-09T12:56:00.112Z,59.31
2023-04-09T12:59:02.578Z,57.83
2023-04-09T13:02:05.524Z,51.92
2023-04-09T13:05:08.590Z,57.91
2023-04-09T13:08:11.517Z,54.00
2023-04-09T13:11:13.899Z,55.43
2023-04-09T13:14:16.631Z,56.58
2023-04-09T13:17:18.991Z,56.87
2023-04-09T13:20:21.841Z,51.76
2023-04-09T13:23:24.233Z,51.53
2023-04-09T13:26:27.062Z,51.04
2023-04-09T13:29:29.664Z,51.30
2023-04-09T13:32:32.431Z,56.14
2023-04-09T13:35:34.964Z,57.11
2023-04-09T13:38:37.716Z,60.94
2023-04-09T13:41:40.717Z,53.76
2023-04-09T13:44:45.198Z,58.97
2023-04-09T13:47:47.600Z,61.71
2023-04-09T13:50:50.527Z,59.93
2023-04-09T13:53:52.965Z,60.86
2023-04-09T13:56:55.701Z,67.60
2023-04-09T13:59:58.094Z,63.47
2023-04-09T14:03:01.290Z,64.88
2023-04-09T14:06:04.085Z,69.22
2023-04-09T14:09:06.785Z,71.18
2023-04-09T14:12:10.209Z,72.45
2023-04-09T14:15:12.924Z,65.89
2023-04-09T14:18:15.614Z,58.37
2023-04-09T14:21:18.682Z,59.31
2023-04-09T14:24:23.346Z,54.96
2023-04-09T14:27:26.632Z,55.19
2023-04-09T14:30:29.222Z,58.52
2023-04-09T14:33:32.024Z,59.95
2023-04-09T14:36:34.484Z,58.01
2023-04-09T14:39:37.171Z,57.67
2023-04-09T14:42:41.407Z,59.36
2023-04-09T14:45:44.131Z,57.73
2023-04-09T14:48:46.818Z,61.75
2023-04-09T14:51:49.738Z,61.84
2023-04-09T14:54:52.284Z,60.66
2023-04-09T14:57:55.151Z,60.31
2023-04-09T15:00:57.867Z,62.03
2023-04-09T15:04:00.899Z,62.99
2023-04-09T15:07:03.404Z,63.10
2023-04-09T15:10:06.790Z,65.02
2023-04-09T15:13:09.207Z,63.40
2023-04-09T15:16:20.693Z,63.09
2023-04-09T15:19:23.299Z,64.65
2023-04-09T15:22:26.537Z,65.31
2023-04-09T15:25:28.926Z,66.05
2023-04-09T15:28:31.687Z,66.69
2023-04-09T15:31:34.700Z,68.73
2023-04-09T15:34:37.616Z,68.21
2023-04-09T15:37:41.978Z,68.61
2023-04-09T15:40:44.744Z,67.57
2023-04-09T15:43:47.158Z,67.13
2023-04-09T15:46:50.046Z,66.64
2023-04-09T15:49:52.539Z,66.13
2023-04-09T15:52:56.453Z,66.80
2023-04-09T15:55:59.194Z,64.99
2023-04-09T15:59:02.461Z,64.39
2023-04-09T16:02:04.945Z,64.35
2023-04-09T16:05:08.221Z,66.06
2023-04-09T16:08:11.908Z,66.69
2023-04-09T16:11:15.615Z,68.19
2023-04-09T16:14:18.077Z,68.88
2023-04-09T16:17:21.054Z,67.79
2023-04-09T16:20:24.006Z,69.65
2023-04-09T16:23:29.940Z,70.48
2023-04-09T16:26:32.960Z,70.30
2023-04-09T16:29:35.671Z,71.03
2023-04-09T16:32:38.133Z,71.74
2023-04-09T16:35:41.707Z,73.38
2023-04-09T16:38:44.292Z,73.25
2023-04-09T16:41:49.596Z,73.36
2023-04-09T16:44:52.025Z,74.88
2023-04-09T16:47:54.922Z,75.67
2023-04-09T16:50:57.384Z,76.80
2023-04-09T16:54:00.354Z,76.73
2023-04-09T16:57:02.897Z,78.08
2023-04-09T17:00:07.058Z,78.42
2023-04-09T17:03:09.534Z,77.80
2023-04-09T17:06:12.448Z,77.40
2023-04-09T17:09:14.955Z,78.80
2023-04-09T17:12:18.475Z,79.09
2023-04-09T17:15:21.739Z,80.37
2023-04-09T17:18:24.578Z,81.73
2023-04-09T17:21:27.581Z,80.96
2023-04-09T17:24:30.450Z,82.05
2023-04-09T17:27:32.917Z,82.91
2023-04-09T17:30:35.616Z,83.37
2023-04-09T17:33:38.811Z,83.41
2023-04-09T17:36:42.686Z,82.79
2023-04-09T17:39:45.109Z,82.80
2023-04-09T17:42:49.512Z,82.44
2023-04-09T17:45:52.002Z,82.58
2023-04-09T17:48:54.901Z,82.97
2023-04-09T17:51:57.870Z,85.41
2023-04-09T17:55:00.494Z,89.72
2023-04-09T17:58:03.602Z,91.92
2023-04-09T18:01:08.927Z,92.46
2023-04-09T18:04:11.852Z,92.74
2023-04-09T18:07:15.031Z,90.94
2023-04-09T18:10:18.578Z,90.78
2023-04-09T18:13:21.494Z,90.42
2023-04-09T18:16:24.101Z,90.07
2023-04-09T18:19:26.966Z,90.97
2023-04-09T18:22:29.424Z,94.58
2023-04-09T18:25:32.175Z,96.78
2023-04-09T18:28:35.409Z,99.78
2023-04-09T18:31:38.125Z,99.46
2023-04-09T18:34:41.261Z,98.39
2023-04-09T18:37:44.194Z,98.51
2023-04-09T18:40:46.857Z,100.00
2023-04-09T18:43:50.228Z,100.00
2023-04-09T18:46:52.757Z,100.00
2023-04-09T18:49:55.773Z,100.00
2023-04-09T18:52:58.137Z,99.43
2023-04-09T18:56:01.272Z,99.94
2023-04-09T18:59:04.204Z,99.29
2023-04-09T19:02:07.758Z,99.39
2023-04-09T19:05:11.866Z,99.14
2023-04-09T19:08:15.258Z,99.88
2023-04-09T19:11:18.073Z,100.00
2023-04-09T19:14:22.103Z,99.23
2023-04-09T19:17:24.862Z,97.98
2023-04-09T19:20:31.028Z,99.78
2023-04-09T19:23:37.078Z,100.00
2023-04-09T19:26:40.105Z,100.00
2023-04-09T19:29:43.104Z,97.20
2023-04-09T19:32:46.242Z,95.75
2023-04-09T19:35:49.519Z,94.73
2023-04-09T19:38:52.611Z,95.40
2023-04-09T19:41:58.217Z,94.89
2023-04-09T19:45:02.111Z,94.06
2023-04-09T19:48:05.693Z,93.42
2023-04-09T19:51:08.481Z,93.29
2023-04-09T19:54:11.079Z,95.31
2023-04-09T19:57:15.368Z,97.44
2023-04-09T20:00:18.045Z,97.80
2023-04-09T20:03:21.280Z,96.97
2023-04-09T20:06:23.929Z,93.93
2023-04-09T20:09:29.036Z,92.03
2023-04-09T20:12:31.742Z,92.30
2023-04-09T20:15:34.804Z,93.11
2023-04-09T20:18:38.351Z,93.55
2023-04-09T20:21:41.082Z,93.15
2023-04-09T20:24:44.039Z,93.15
2023-04-09T20:27:46.907Z,94.17
2023-04-09T20:30:49.563Z,93.90
2023-04-09T20:33:53.087Z,93.28
2023-04-09T20:36:56.101Z,92.11
2023-04-09T20:39:59.815Z,93.07
2023-04-09T20:43:03.063Z,94.51
2023-04-09T20:46:07.428Z,95.29
2023-04-09T20:49:09.975Z,96.98
2023-04-09T20:52:13.191Z,99.76
2023-04-09T20:55:15.773Z,99.91
2023-04-09T20:58:18.861Z,100.00
2023-04-09T21:01:22.292Z,95.80
2023-04-09T21:04:25.924Z,97.50
2023-04-09T21:07:28.391Z,99.05
2023-04-09T21:10:31.298Z,99.12
2023-04-09T21:13:40.400Z,96.63
2023-04-09T21:16:49.645Z,95.69
2023-04-09T21:19:53.418Z,95.04
2023-04-09T21:22:56.637Z,95.07
2023-04-09T21:25:59.154Z,95.30
2023-04-09T21:29:02.184Z,96.60
2023-04-09T21:32:04.700Z,94.65
2023-04-09T21:35:07.953Z,92.80
2023-04-09T21:38:10.448Z,94.40
2023-04-09T21:41:13.374Z,95.74
2023-04-09T21:44:16.034Z,94.44
2023-04-09T21:47:19.369Z,93.04
2023-04-09T21:50:23.340Z,96.55
2023-04-09T21:53:27.381Z,98.30
2023-04-09T21:56:29.842Z,96.30
2023-04-09T21:59:32.595Z,93.34
2023-04-09T22:02:35.092Z,93.40
2023-04-09T22:05:38.076Z,97.14
2023-04-09T22:08:54.948Z,98.11
2023-04-09T22:11:59.883Z,97.14
2023-04-09T22:15:05.059Z,98.77
2023-04-09T22:18:07.791Z,98.38
2023-04-09T22:21:14.283Z,97.79
2023-04-09T22:24:18.484Z,96.44
2023-04-09T22:27:20.905Z,95.35
2023-04-09T22:30:24.658Z,94.78
2023-04-09T22:33:27.224Z,97.74
2023-04-09T22:36:29.939Z,98.67
2023-04-09T22:39:32.415Z,96.63
2023-04-09T22:42:35.147Z,95.64
2023-04-09T22:45:37.909Z,95.29
2023-04-09T22:48:44.973Z,96.26
2023-04-09T22:51:47.606Z,98.16
2023-04-09T22:54:50.256Z,97.59
2023-04-09T22:57:52.767Z,98.43
2023-04-09T23:00:55.451Z,96.83
2023-04-09T23:03:57.840Z,94.09
2023-04-09T23:07:00.920Z,94.68
2023-04-09T23:10:03.354Z,97.77
2023-04-09T23:13:06.313Z,96.34
2023-04-09T23:16:09.951Z,96.45
2023-04-09T23:19:12.631Z,96.77
2023-04-09T23:22:14.932Z,94.32
2023-04-09T23:25:17.909Z,94.51
2023-04-09T23:28:20.399Z,93.37
2023-04-09T23:31:23.153Z,92.15
2023-04-09T23:34:25.730Z,92.88
2023-04-09T23:37:28.400Z,94.29
2023-04-09T23:40:31.049Z,94.25
2023-04-09T23:43:33.782Z,93.60
2023-04-09T23:46:36.706Z,95.05
2023-04-09T23:49:41.933Z,96.72
2023-04-09T23:52:49.517Z,96.49
2023-04-09T23:55:52.928Z,95.06
2023-04-09T23:58:55.258Z,95.81
